Time;durP1;ratioP1;P1;durP2;ratioP2;P2;SDS_P1;SDS_P2;PMS_P1;PMS_P2;Temp;Humidity;BMP_temperature;BMP_pressure;BME280_temperature;BME280_humidity;BME280_pressure;Samples;Min_cycle;Max_cycle;Signal;HPM_P1;HPM_P2
2021/05/03 00:02:23;;;;;;;11.52;3.28;;;4.70;99.90;;;;;;5128411;28;20110;-81
2021/05/03 00:04:50;;;;;;;5.45;3.20;;;4.90;99.90;;;;;;5127770;28;20040;-81
2021/05/03 00:07:16;;;;;;;6.38;3.20;;;4.50;99.90;;;;;;5111460;28;20430;-81
2021/05/03 00:09:43;;;;;;;5.35;2.95;;;4.50;99.90;;;;;;5094313;28;20036;-81
2021/05/03 00:12:10;;;;;;;7.65;3.22;;;4.40;99.90;;;;;;5127896;28;20361;-81
2021/05/03 00:14:37;;;;;;;6.72;3.20;;;4.30;99.90;;;;;;5128128;28;20040;-81
2021/05/03 00:17:04;;;;;;;8.40;3.20;;;4.50;99.90;;;;;;5127352;28;20472;-81
2021/05/03 00:19:31;;;;;;;4.93;3.17;;;4.20;99.90;;;;;;5111269;28;20059;-81
2021/05/03 00:21:58;;;;;;;6.00;3.60;;;4.20;99.90;;;;;;5128793;28;20096;-81
2021/05/03 00:24:24;;;;;;;5.00;3.22;;;4.10;99.90;;;;;;5111192;28;20484;-81
2021/05/03 00:26:51;;;;;;;7.60;3.63;;;4.50;99.90;;;;;;5094088;28;20114;-81
2021/05/03 00:29:18;;;;;;;6.78;3.40;;;4.80;99.90;;;;;;5110942;28;20043;-81
2021/05/03 00:31:45;;;;;;;7.20;3.63;;;4.50;99.90;;;;;;5093730;28;20086;-82
2021/05/03 00:34:13;;;;;;;5.55;3.30;;;4.10;99.90;;;;;;5127479;28;20074;-81
2021/05/03 00:36:40;;;;;;;5.97;3.30;;;4.50;99.90;;;;;;5127433;28;20434;-81
2021/05/03 00:39:08;;;;;;;5.90;3.45;;;4.00;99.90;;;;;;5110247;28;20039;-81
2021/05/03 00:41:35;;;;;;;5.78;3.75;;;4.00;99.90;;;;;;5127402;28;20119;-81
2021/05/03 00:44:02;;;;;;;7.90;3.92;;;4.00;99.90;;;;;;5126981;28;20515;-81
2021/05/03 00:46:29;;;;;;;6.05;3.65;;;4.10;99.90;;;;;;5094027;28;20464;-81
2021/05/03 00:48:56;;;;;;;8.20;4.50;;;4.10;99.90;;;;;;5093416;28;20075;-81
2021/05/03 00:51:23;;;;;;;7.47;3.58;;;4.10;99.90;;;;;;5110371;28;20455;-81
2021/05/03 00:53:50;;;;;;;6.63;3.47;;;4.10;99.90;;;;;;5093606;28;20426;-81
2021/05/03 00:56:17;;;;;;;9.10;4.30;;;4.20;99.90;;;;;;5127288;28;20093;-81
2021/05/03 00:58:44;;;;;;;9.88;3.92;;;4.20;99.90;;;;;;5110232;28;20044;-81
2021/05/03 01:01:11;;;;;;;7.65;4.47;;;4.20;99.90;;;;;;5126904;28;20085;-81
2021/05/03 01:03:38;;;;;;;6.95;3.92;;;4.20;99.90;;;;;;5094005;28;20036;-81
2021/05/03 01:06:05;;;;;;;10.10;4.30;;;4.20;99.90;;;;;;5109938;28;20044;-81
2021/05/03 01:08:32;;;;;;;9.90;4.28;;;4.20;99.90;;;;;;5110681;28;20028;-81
2021/05/03 01:11:00;;;;;;;8.82;4.30;;;4.60;99.90;;;;;;5126738;28;20040;-81
2021/05/03 01:13:27;;;;;;;9.05;4.50;;;4.20;99.90;;;;;;5110327;28;20036;-81
2021/05/03 01:15:53;;;;;;;7.45;3.88;;;4.20;99.90;;;;;;5110359;28;20032;-81
2021/05/03 01:18:24;;;;;;;7.30;4.10;;;4.60;99.90;;;;;;5093716;28;20043;-81
2021/05/03 01:20:57;;;;;;;12.40;4.05;;;4.40;99.90;;;;;;5110586;28;20028;-81
2021/05/03 01:23:24;;;;;;;7.82;3.65;;;4.20;99.90;;;;;;5110339;28;20036;-81
2021/05/03 01:25:51;;;;;;;9.00;4.22;;;4.20;99.90;;;;;;5126685;28;20484;-82
2021/05/03 01:28:19;;;;;;;7.25;4.45;;;4.20;99.90;;;;;;5110524;28;20044;-81
2021/05/03 01:30:47;;;;;;;10.23;4.22;;;4.20;99.90;;;;;;5110292;28;20040;-81
2021/05/03 01:33:16;;;;;;;7.72;4.50;;;4.10;99.90;;;;;;5126419;28;20040;-81
2021/05/03 01:35:44;;;;;;;11.15;4.80;;;4.40;99.90;;;;;;5126835;28;20471;-81
2021/05/03 01:38:12;;;;;;;9.02;4.30;;;4.10;99.90;;;;;;5109870;28;20040;-81
2021/05/03 01:40:41;;;;;;;11.82;4.10;;;4.60;99.90;;;;;;5110394;28;20036;-81
2021/05/03 01:43:15;;;;;;;9.52;4.35;;;4.10;99.90;;;;;;5109669;28;20523;-81
2021/05/03 01:45:43;;;;;;;9.60;4.35;;;4.00;99.90;;;;;;5126904;28;20036;-81
2021/05/03 01:48:17;;;;;;;9.20;4.40;;;4.30;99.90;;;;;;5126101;28;20391;-81
2021/05/03 01:50:44;;;;;;;7.85;4.22;;;4.00;99.90;;;;;;5127794;28;20052;-81
2021/05/03 01:53:12;;;;;;;11.27;4.35;;;4.00;99.90;;;;;;5127379;28;20542;-81
2021/05/03 01:55:39;;;;;;;9.85;4.40;;;4.00;99.90;;;;;;5093168;28;20046;-81
2021/05/03 01:58:08;;;;;;;9.02;4.43;;;4.00;99.90;;;;;;5129271;28;20039;-81
2021/05/03 02:00:35;;;;;;;8.35;4.25;;;4.50;99.90;;;;;;5130534;28;20085;-81
2021/05/03 02:03:03;;;;;;;10.82;4.40;;;4.00;99.90;;;;;;5130143;28;20040;-81
2021/05/03 02:05:30;;;;;;;10.52;4.85;;;4.10;99.90;;;;;;5097082;28;20057;-81
2021/05/03 02:08:02;;;;;;;8.18;4.15;;;4.10;99.90;;;;;;5130058;28;20040;-81
2021/05/03 02:10:31;;;;;;;13.38;4.63;;;4.40;99.90;;;;;;5130460;28;20036;-81
2021/05/03 02:13:00;;;;;;;8.18;4.15;;;4.30;99.90;;;;;;5096686;28;20048;-81
2021/05/03 02:15:29;;;;;;;10.55;4.10;;;4.20;99.90;;;;;;5113725;28;20089;-81
2021/05/03 02:17:56;;;;;;;8.30;4.10;;;4.20;99.90;;;;;;5129911;28;20097;-81
2021/05/03 02:20:23;;;;;;;8.27;4.10;;;4.20;99.90;;;;;;5130151;28;20036;-81
2021/05/03 02:22:50;;;;;;;7.15;4.38;;;4.20;99.90;;;;;;5130019;28;20039;-81
2021/05/03 02:25:17;;;;;;;12.43;4.50;;;4.70;99.90;;;;;;5129596;28;20091;-81
2021/05/03 02:27:44;;;;;;;7.95;4.47;;;4.30;99.90;;;;;;5113241;28;20040;-81
2021/05/03 02:30:11;;;;;;;8.88;4.40;;;4.20;99.90;;;;;;5112756;28;20060;-81
2021/05/03 02:32:39;;;;;;;7.63;4.18;;;4.30;99.90;;;;;;5130074;28;20128;-81
2021/05/03 02:35:14;;;;;;;6.40;4.20;;;4.80;99.90;;;;;;5112662;28;20036;-82
2021/05/03 02:37:44;;;;;;;8.20;4.22;;;4.30;99.90;;;;;;5129841;28;20123;-81
2021/05/03 02:40:11;;;;;;;12.60;4.00;;;4.70;99.90;;;;;;5129236;28;20040;-81
2021/05/03 02:42:38;;;;;;;7.05;4.32;;;4.40;99.90;;;;;;5129668;28;20036;-81
2021/05/03 02:45:06;;;;;;;8.48;4.18;;;4.60;99.90;;;;;;5095915;28;20070;-81
2021/05/03 02:47:33;;;;;;;8.38;4.50;;;4.40;99.90;;;;;;5129523;28;20438;-81
2021/05/03 02:50:00;;;;;;;10.57;4.88;;;4.40;99.90;;;;;;5112459;28;20083;-82
2021/05/03 02:52:27;;;;;;;8.95;4.22;;;4.50;99.90;;;;;;5112696;28;20071;-81
2021/05/03 02:54:54;;;;;;;7.85;4.43;;;4.40;99.90;;;;;;5096052;28;20043;-80
2021/05/03 02:57:21;;;;;;;8.15;4.18;;;4.40;99.90;;;;;;5095522;28;20036;-81
2021/05/03 02:59:47;;;;;;;9.80;4.30;;;4.50;99.90;;;;;;5095999;28;20115;-80
2021/05/03 03:02:15;;;;;;;6.65;3.75;;;4.90;99.90;;;;;;5112013;28;20465;-81
2021/05/03 03:04:42;;;;;;;7.45;4.35;;;4.50;99.90;;;;;;5129193;28;20507;-81
2021/05/03 03:07:09;;;;;;;9.02;4.43;;;4.60;99.90;;;;;;5095435;28;20032;-81
2021/05/03 03:09:36;;;;;;;8.23;4.55;;;4.50;99.90;;;;;;5112343;28;20127;-80
2021/05/03 03:12:03;;;;;;;9.05;4.47;;;4.50;99.90;;;;;;5111801;28;20032;-80
2021/05/03 03:14:30;;;;;;;6.88;3.83;;;4.50;99.90;;;;;;5112179;28;20111;-80
2021/05/03 03:16:57;;;;;;;8.65;4.35;;;4.50;99.90;;;;;;5095683;28;20119;-80
2021/05/03 03:19:24;;;;;;;9.65;4.65;;;4.80;99.90;;;;;;5094973;28;20123;-80
2021/05/03 03:21:51;;;;;;;7.18;4.28;;;4.60;99.90;;;;;;5095472;28;20040;-80
2021/05/03 03:24:18;;;;;;;8.55;4.43;;;4.90;99.90;;;;;;5094897;28;20040;-81
2021/05/03 03:26:44;;;;;;;9.38;4.50;;;4.60;99.90;;;;;;5111911;28;20048;-81
2021/05/03 03:29:11;;;;;;;11.27;4.10;;;5.10;99.90;;;;;;5128478;28;20497;-81
2021/05/03 03:31:38;;;;;;;10.48;4.50;;;4.60;99.90;;;;;;5095334;28;20136;-80
2021/05/03 03:34:05;;;;;;;8.40;4.45;;;4.60;99.90;;;;;;5094815;28;20063;-81
2021/05/03 03:36:32;;;;;;;8.32;4.20;;;5.20;99.90;;;;;;5111990;28;20036;-80
2021/05/03 03:39:00;;;;;;;8.43;4.45;;;4.60;99.90;;;;;;5111780;28;20032;-81
2021/05/03 03:41:27;;;;;;;9.30;4.05;;;4.60;99.90;;;;;;5094948;28;20047;-80
2021/05/03 03:43:54;;;;;;;7.45;4.47;;;4.70;99.90;;;;;;5111790;28;20156;-80
2021/05/03 03:46:21;;;;;;;6.32;4.25;;;4.80;99.90;;;;;;5111136;28;20036;-80
2021/05/03 03:48:48;;;;;;;6.50;4.45;;;4.60;99.90;;;;;;5111739;28;20404;-80
2021/05/03 03:51:16;;;;;;;6.18;3.65;;;4.80;99.90;;;;;;5128947;28;20435;-80
2021/05/03 03:53:43;;;;;;;11.02;4.68;;;4.50;99.90;;;;;;5111464;28;20032;-80
2021/05/03 03:56:12;;;;;;;7.32;3.90;;;4.60;99.90;;;;;;5094306;28;20490;-80
2021/05/03 03:58:39;;;;;;;6.43;4.03;;;4.60;99.90;;;;;;5127991;28;20483;-79
2021/05/03 04:01:10;;;;;;;6.78;3.83;;;4.60;99.90;;;;;;5110940;28;20032;-81
2021/05/03 04:03:47;;;;;;;7.25;4.00;;;4.70;99.90;;;;;;5129019;28;20466;-80
2021/05/03 04:09:56;;;;;;;7.45;4.18;;;4.60;99.90;;;;;;5129176;28;20036;-80
2021/05/03 04:23:01;;;;;;;9.38;4.65;;;4.60;99.90;;;;;;5113476;28;20036;-80
2021/05/03 04:25:37;;;;;;;7.63;4.22;;;4.90;99.90;;;;;;5110075;28;20041;-80
2021/05/03 04:28:05;;;;;;;8.73;4.60;;;4.70;99.90;;;;;;5120137;28;20035;-80
2021/05/03 04:30:34;;;;;;;7.47;4.60;;;4.70;99.90;;;;;;5125440;28;20046;-80
2021/05/03 04:33:01;;;;;;;7.85;4.28;;;4.80;99.90;;;;;;5109986;28;20059;-80
2021/05/03 04:35:28;;;;;;;8.25;4.97;;;4.70;99.90;;;;;;5093220;28;20050;-80
2021/05/03 04:37:55;;;;;;;7.88;4.22;;;4.70;99.90;;;;;;5131141;28;20521;-80
2021/05/03 04:40:22;;;;;;;6.40;4.15;;;4.70;99.90;;;;;;5130443;28;20028;-80
2021/05/03 04:42:49;;;;;;;8.20;4.50;;;4.70;99.90;;;;;;5139816;28;20553;-80
2021/05/03 04:45:16;;;;;;;8.20;4.78;;;4.70;99.90;;;;;;5126520;28;20480;-80
2021/05/03 04:47:43;;;;;;;7.22;4.45;;;4.70;99.90;;;;;;5110344;28;20476;-80
2021/05/03 04:50:11;;;;;;;6.97;4.68;;;4.80;99.90;;;;;;5128625;28;20442;-80
2021/05/03 04:52:39;;;;;;;6.65;4.15;;;4.80;99.90;;;;;;5113787;28;20062;-80
2021/05/03 04:55:07;;;;;;;8.43;5.10;;;4.80;99.90;;;;;;5114088;28;20051;-80
2021/05/03 04:57:34;;;;;;;10.00;5.43;;;4.80;99.90;;;;;;5137270;28;20043;-80
2021/05/03 05:00:02;;;;;;;6.85;4.70;;;4.90;99.90;;;;;;5147509;28;20084;-80
2021/05/03 05:02:29;;;;;;;7.55;4.80;;;5.20;99.90;;;;;;5132731;28;20058;-80
2021/05/03 05:04:57;;;;;;;7.07;5.07;;;4.90;99.90;;;;;;5119034;28;20044;-80
2021/05/03 05:07:24;;;;;;;7.63;4.85;;;5.20;99.90;;;;;;5109766;28;20086;-81
2021/05/03 05:09:50;;;;;;;7.75;4.72;;;4.90;99.90;;;;;;5110071;28;20036;-81
2021/05/03 05:12:17;;;;;;;7.93;5.25;;;4.90;99.90;;;;;;5093200;28;20040;-82
2021/05/03 05:14:44;;;;;;;10.98;5.28;;;5.00;99.90;;;;;;5093684;28;20040;-82
2021/05/03 05:17:11;;;;;;;9.20;5.45;;;5.30;99.90;;;;;;5127129;28;20036;-82
2021/05/03 05:19:38;;;;;;;8.55;5.93;;;4.90;99.90;;;;;;5093220;28;20043;-83
2021/05/03 05:22:05;;;;;;;11.27;6.00;;;4.90;99.90;;;;;;5093385;28;20119;-83
2021/05/03 05:24:32;;;;;;;9.00;5.65;;;5.20;99.90;;;;;;5109696;28;20111;-83
2021/05/03 05:26:59;;;;;;;8.43;5.70;;;4.90;99.90;;;;;;5110334;28;20115;-82
2021/05/03 05:29:26;;;;;;;12.65;6.30;;;5.20;99.90;;;;;;5111502;28;20032;-82
2021/05/03 05:31:53;;;;;;;11.00;6.20;;;5.40;99.90;;;;;;5111973;28;20043;-82
2021/05/03 05:34:20;;;;;;;10.90;6.50;;;5.00;99.90;;;;;;5097557;28;20040;-84
2021/05/03 05:36:47;;;;;;;14.23;6.25;;;5.60;99.90;;;;;;5130875;28;20062;-83
2021/05/03 05:39:14;;;;;;;12.02;6.80;;;5.00;99.90;;;;;;5113930;28;20085;-83
2021/05/03 05:41:41;;;;;;;11.95;7.25;;;5.00;99.90;;;;;;5113594;28;20426;-82
2021/05/03 05:44:08;;;;;;;10.57;6.82;;;5.00;99.90;;;;;;5130580;28;20032;-83
2021/05/03 05:46:37;;;;;;;10.52;6.75;;;5.10;99.90;;;;;;5130153;28;20048;-82
2021/05/03 05:49:04;;;;;;;9.50;6.63;;;5.10;99.90;;;;;;5097695;28;20040;-83
2021/05/03 05:51:31;;;;;;;11.65;6.88;;;5.10;99.90;;;;;;5129918;28;20427;-83
2021/05/03 05:53:59;;;;;;;11.77;7.22;;;5.10;99.90;;;;;;5130464;28;20040;-83
2021/05/03 05:56:26;;;;;;;10.32;7.10;;;5.10;99.90;;;;;;5146812;28;20046;-83
2021/05/03 05:58:52;;;;;;;14.27;8.48;;;5.10;99.90;;;;;;5112151;28;20043;-83
2021/05/03 06:01:21;;;;;;;13.30;7.95;;;5.40;99.90;;;;;;5104902;28;20480;-83
2021/05/03 06:03:48;;;;;;;13.77;7.70;;;5.10;99.90;;;;;;5114636;28;20380;-85
2021/05/03 06:06:15;;;;;;;11.88;7.15;;;5.60;99.90;;;;;;5113157;28;20035;-82
2021/05/03 06:08:41;;;;;;;11.85;7.30;;;5.50;99.90;;;;;;5116355;28;20064;-82
2021/05/03 06:11:08;;;;;;;14.68;7.38;;;5.20;99.90;;;;;;5132084;28;20081;-81
2021/05/03 06:13:35;;;;;;;12.68;7.55;;;5.20;99.90;;;;;;5124900;28;20069;-82
2021/05/03 06:16:02;;;;;;;13.77;8.20;;;5.50;99.90;;;;;;5119784;28;20040;-82
2021/05/03 06:18:29;;;;;;;14.02;8.38;;;5.10;99.90;;;;;;5133227;28;20078;-83
2021/05/03 06:20:55;;;;;;;16.92;7.72;;;5.00;99.90;;;;;;5127719;28;20035;-84
2021/05/03 06:23:22;;;;;;;12.50;7.78;;;5.20;99.90;;;;;;5146357;28;20035;-84
2021/05/03 06:25:49;;;;;;;11.05;7.05;;;5.00;99.90;;;;;;5150114;28;20472;-83
2021/05/03 06:28:16;;;;;;;13.02;7.70;;;4.50;99.90;;;;;;5133987;28;20040;-83
2021/05/03 06:30:43;;;;;;;9.38;6.35;;;5.30;99.90;;;;;;5105726;28;20697;-84
2021/05/03 06:33:10;;;;;;;9.02;5.30;;;4.90;99.90;;;;;;5096645;28;20040;-83
2021/05/03 06:35:37;;;;;;;10.60;6.22;;;4.90;99.90;;;;;;5116030;28;20032;-83
2021/05/03 06:38:05;;;;;;;9.40;5.90;;;4.90;99.90;;;;;;5133499;28;20043;-83
2021/05/03 06:40:33;;;;;;;11.45;6.63;;;5.30;99.90;;;;;;5133309;28;20093;-83
2021/05/03 06:43:00;;;;;;;9.90;6.05;;;4.80;99.90;;;;;;5129254;28;20028;-83
2021/05/03 06:45:30;;;;;;;7.38;4.90;;;5.10;99.90;;;;;;5129187;28;20092;-83
2021/05/03 06:47:58;;;;;;;9.35;6.00;;;5.10;99.90;;;;;;5113079;28;20036;-83
2021/05/03 06:50:25;;;;;;;8.35;5.78;;;5.00;99.90;;;;;;5129012;28;20044;-83
2021/05/03 06:52:52;;;;;;;8.13;5.40;;;5.20;99.90;;;;;;5133594;28;20085;-83
2021/05/03 06:55:20;;;;;;;7.93;5.28;;;5.30;99.90;;;;;;5114115;28;20042;-83
2021/05/03 06:57:46;;;;;;;7.50;4.85;;;5.30;99.90;;;;;;5144446;28;20040;-82
2021/05/03 07:00:14;;;;;;;11.23;7.72;;;5.30;99.90;;;;;;5127852;28;20088;-82
2021/05/03 07:02:42;;;;;;;9.82;6.47;;;5.30;99.90;;;;;;5139607;28;20036;-82
2021/05/03 07:05:10;;;;;;;10.48;7.03;;;5.40;99.90;;;;;;5131283;28;20364;-81
2021/05/03 07:07:38;;;;;;;7.82;5.57;;;5.30;99.90;;;;;;5127954;28;20032;-81
2021/05/03 07:10:06;;;;;;;9.88;6.45;;;5.40;99.90;;;;;;5149292;28;20039;-80
2021/05/03 07:12:43;;;;;;;7.13;5.63;;;5.40;99.90;;;;;;5128120;28;20384;-81
2021/05/03 07:15:12;;;;;;;8.50;5.82;;;5.50;99.90;;;;;;5137875;28;20052;-81
2021/05/03 07:17:39;;;;;;;10.55;6.22;;;5.50;99.90;;;;;;5120263;28;20059;-81
2021/05/03 07:20:08;;;;;;;9.30;7.07;;;5.60;99.90;;;;;;5128407;28;20032;-80
2021/05/03 07:22:36;;;;;;;9.93;6.68;;;5.60;99.90;;;;;;5113444;28;20043;-80
2021/05/03 07:25:05;;;;;;;10.18;6.93;;;5.60;99.90;;;;;;5116156;28;20131;-79
2021/05/03 07:27:32;;;;;;;8.45;5.90;;;5.60;99.90;;;;;;5146903;28;20063;-82
2021/05/03 07:29:59;;;;;;;8.32;5.97;;;5.60;99.90;;;;;;5125162;28;20051;-82
2021/05/03 07:32:26;;;;;;;10.43;6.50;;;5.50;99.90;;;;;;5121891;28;20039;-81
2021/05/03 07:34:52;;;;;;;10.20;6.13;;;5.50;99.90;;;;;;5141423;28;20048;-82
2021/05/03 07:37:19;;;;;;;7.90;6.43;;;5.60;99.90;;;;;;5129597;28;20723;-82
2021/05/03 07:39:46;;;;;;;9.38;6.70;;;5.60;99.90;;;;;;5130910;28;20028;-81
2021/05/03 07:42:13;;;;;;;9.60;6.70;;;5.60;99.90;;;;;;5131132;28;20031;-80
2021/05/03 07:44:40;;;;;;;10.07;7.95;;;5.70;99.90;;;;;;5124106;28;20043;-81
2021/05/03 07:47:07;;;;;;;10.13;7.90;;;5.70;99.90;;;;;;5129013;28;20092;-81
2021/05/03 07:49:33;;;;;;;10.35;7.95;;;5.70;99.90;;;;;;5125211;28;20036;-80
2021/05/03 07:52:00;;;;;;;12.85;9.15;;;5.70;99.90;;;;;;5124530;28;20097;-81
2021/05/03 07:54:27;;;;;;;13.32;9.63;;;5.80;99.90;;;;;;5136014;28;20043;-80
2021/05/03 07:56:54;;;;;;;17.92;11.70;;;5.80;99.90;;;;;;5141203;28;20040;-80
2021/05/03 07:59:21;;;;;;;16.83;11.82;;;5.90;99.90;;;;;;5124378;28;20035;-80
2021/05/03 08:01:48;;;;;;;15.55;11.57;;;6.20;99.90;;;;;;5103819;28;20036;-80
2021/05/03 08:04:14;;;;;;;18.65;13.05;;;6.00;99.90;;;;;;5131269;28;20130;-80
2021/05/03 08:06:41;;;;;;;16.02;11.73;;;6.00;99.90;;;;;;5119402;28;20051;-80
2021/05/03 08:09:08;;;;;;;16.20;12.52;;;6.20;99.90;;;;;;5132088;28;20032;-80
2021/05/03 08:11:35;;;;;;;22.92;14.43;;;6.10;99.90;;;;;;5132924;28;20463;-80
2021/05/03 08:14:01;;;;;;;16.77;13.15;;;6.10;99.90;;;;;;5125734;28;20511;-80
2021/05/03 08:16:31;;;;;;;19.90;14.45;;;6.10;99.90;;;;;;5096302;28;20115;-80
2021/05/03 08:18:58;;;;;;;22.33;15.43;;;6.10;99.90;;;;;;5131512;28;20038;-79
2021/05/03 08:21:25;;;;;;;19.55;14.55;;;6.20;99.90;;;;;;5148194;28;20118;-79
2021/05/03 08:23:51;;;;;;;20.17;15.30;;;6.20;99.90;;;;;;5141235;28;20464;-78
2021/05/03 08:26:18;;;;;;;23.15;15.55;;;6.30;99.90;;;;;;5140818;28;20047;-78
2021/05/03 08:28:46;;;;;;;20.40;15.02;;;6.30;99.90;;;;;;5109734;28;20036;-79
2021/05/03 08:31:13;;;;;;;21.88;15.85;;;6.30;99.90;;;;;;5142495;28;20080;-78
2021/05/03 08:33:40;;;;;;;23.55;16.67;;;6.50;99.90;;;;;;5122049;28;20040;-79
2021/05/03 08:36:07;;;;;;;24.15;17.13;;;6.30;99.90;;;;;;5111291;28;20442;-79
2021/05/03 08:38:34;;;;;;;24.15;17.92;;;6.40;99.90;;;;;;5130124;28;20103;-80
2021/05/03 08:41:03;;;;;;;26.90;17.35;;;6.40;99.90;;;;;;5123527;28;20044;-79
2021/05/03 08:43:32;;;;;;;28.48;18.60;;;6.40;99.90;;;;;;5118058;28;20162;-79
2021/05/03 08:45:59;;;;;;;33.65;21.73;;;6.50;99.90;;;;;;5143301;28;20063;-79
2021/05/03 08:51:02;;;;;;;34.97;22.10;;;6.60;99.90;;;;;;5147867;28;20403;-79
2021/05/03 08:53:32;;;;;;;30.30;19.92;;;6.80;99.90;;;;;;5148241;28;20036;-79
2021/05/03 08:55:59;;;;;;;34.22;21.60;;;6.80;99.90;;;;;;5146668;28;20039;-79
2021/05/03 08:58:28;;;;;;;32.70;22.63;;;6.90;99.90;;;;;;5130260;28;20046;-79
2021/05/03 09:00:55;;;;;;;38.33;24.83;;;7.20;99.90;;;;;;5128870;28;20440;-79
2021/05/03 09:03:23;;;;;;;38.83;25.75;;;7.40;99.90;;;;;;5124963;28;20040;-79
2021/05/03 09:05:50;;;;;;;36.90;26.67;;;7.70;99.90;;;;;;5130030;28;20407;-79
2021/05/03 09:08:27;;;;;;;30.92;23.75;;;8.00;99.90;;;;;;5121109;28;20036;-79
2021/05/03 09:10:55;;;;;;;31.33;23.38;;;8.30;99.90;;;;;;5136451;28;20066;-79
2021/05/03 09:13:35;;;;;;;35.42;25.83;;;8.40;99.90;;;;;;5138160;28;20032;-78
2021/05/03 09:16:31;;;;;;;33.83;25.45;;;8.50;99.90;;;;;;5135050;28;20055;-79
2021/05/03 09:19:00;;;;;;;;;;;8.80;99.90;;;;;;5140935;28;20072;-79
2021/05/03 09:21:32;;;;;;;38.33;26.88;;;9.20;99.90;;;;;;5130202;28;19916;-79
2021/05/03 09:24:12;;;;;;;42.10;28.85;;;9.20;99.90;;;;;;5138436;28;20439;-79
2021/05/03 09:26:47;;;;;;;40.03;29.40;;;9.40;99.90;;;;;;5137968;28;20067;-80
2021/05/03 09:29:31;;;;;;;33.92;25.27;;;9.50;99.90;;;;;;5136913;28;20032;-79
2021/05/03 09:32:02;;;;;;;31.95;25.85;;;9.60;99.90;;;;;;5137556;28;20520;-79
2021/05/03 09:34:41;;;;;;;29.60;21.98;;;9.50;99.90;;;;;;5132615;28;20142;-79
2021/05/03 09:37:34;;;;;;;29.88;21.83;;;9.60;99.90;;;;;;5147650;28;20042;-79
2021/05/03 09:40:06;;;;;;;29.40;21.95;;;9.30;99.90;;;;;;5147439;28;20035;-78
2021/05/03 09:42:51;;;;;;;22.30;17.38;;;9.20;99.90;;;;;;5147718;28;20032;-79
2021/05/03 09:45:27;;;;;;;21.10;14.63;;;9.00;99.90;;;;;;5136869;28;20395;-81
2021/05/03 09:47:56;;;;;;;19.88;13.07;;;8.80;99.90;;;;;;5146036;28;20040;-78
2021/05/03 09:50:30;;;;;;;16.63;12.00;;;8.70;99.90;;;;;;5146257;28;20047;-79
2021/05/03 09:53:00;;;;;;;17.17;11.18;;;8.40;99.90;;;;;;5145308;28;20036;-78
2021/05/03 09:55:53;;;;;;;14.25;10.15;;;8.20;99.90;;;;;;5145735;28;20067;-78
2021/05/03 09:58:21;;;;;;;11.80;7.93;;;8.10;99.90;;;;;;5146231;28;20080;-78
2021/05/03 10:00:50;;;;;;;11.20;7.45;;;8.20;99.90;;;;;;5128976;28;20036;-78
2021/05/03 10:03:47;;;;;;;12.73;8.90;;;8.10;99.90;;;;;;5115764;28;20028;-78
2021/05/03 10:06:16;;;;;;;15.38;10.23;;;8.10;99.90;;;;;;5130588;28;20051;-77
2021/05/03 10:08:50;;;;;;;15.05;10.95;;;8.10;99.90;;;;;;5144831;28;20042;-78
2021/05/03 10:11:17;;;;;;;18.52;12.55;;;8.30;99.90;;;;;;5141330;28;20140;-77
2021/05/03 10:13:48;;;;;;;19.55;13.18;;;8.20;99.90;;;;;;5144147;28;20035;-77
2021/05/03 10:16:15;;;;;;;18.58;14.23;;;8.30;99.90;;;;;;5136036;28;20111;-78
2021/05/03 10:18:42;;;;;;;16.15;11.23;;;8.30;99.90;;;;;;5141122;28;20043;-77
2021/05/03 10:21:14;;;;;;;15.18;12.15;;;8.40;99.90;;;;;;5099502;28;20044;-79
2021/05/03 10:23:44;;;;;;;15.60;11.93;;;8.50;99.90;;;;;;5146581;28;20042;-79
2021/05/03 10:26:11;;;;;;;17.58;12.05;;;8.50;99.90;;;;;;5147389;28;20040;-79
2021/05/03 10:28:50;;;;;;;13.30;10.18;;;8.60;99.90;;;;;;5126050;28;20032;-79
2021/05/03 10:31:17;;;;;;;11.52;8.73;;;8.60;99.90;;;;;;5149969;28;20031;-78
2021/05/03 10:33:44;;;;;;;11.02;8.73;;;8.60;99.90;;;;;;5132525;28;20035;-79
2021/05/03 10:36:35;;;;;;;10.75;8.32;;;8.60;99.90;;;;;;5128066;28;20560;-79
2021/05/03 10:39:25;;;;;;;15.45;11.15;;;8.60;99.90;;;;;;5149394;28;20039;-79
2021/05/03 10:42:11;;;;;;;18.33;13.65;;;8.60;99.90;;;;;;5135765;28;20052;-79
2021/05/03 10:44:40;;;;;;;17.60;14.50;;;8.70;99.90;;;;;;5128777;28;20039;-79
2021/05/03 10:47:54;;;;;;;17.40;14.38;;;8.80;99.90;;;;;;5128251;28;20028;-78
2021/05/03 10:50:35;;;;;;;22.73;15.82;;;8.90;99.90;;;;;;5135521;28;20048;-78
2021/05/03 10:53:40;;;;;;;21.17;16.15;;;9.00;99.90;;;;;;5144753;28;20063;-78
2021/05/03 10:56:09;;;;;;;22.38;16.50;;;9.00;99.90;;;;;;5131756;28;20046;-78
2021/05/03 10:58:54;;;;;;;24.00;18.40;;;9.10;99.90;;;;;;5129919;28;20460;-78
2021/05/03 11:01:23;;;;;;;25.75;20.65;;;9.20;99.90;;;;;;5149660;28;20036;-76
2021/05/03 11:03:56;;;;;;;30.10;21.65;;;9.40;99.90;;;;;;5131683;28;20043;-77
2021/05/03 11:06:41;;;;;;;28.73;20.75;;;9.70;99.90;;;;;;5147783;28;20116;-77
2021/05/03 11:09:30;;;;;;;34.33;25.50;;;10.00;99.90;;;;;;5138821;28;20472;-79
2021/05/03 11:12:01;;;;;;;34.75;28.05;;;10.30;99.90;;;;;;5148469;28;21722;-78
2021/05/03 11:14:31;;;;;;;36.70;27.15;;;10.60;99.90;;;;;;5117919;28;20040;-77
2021/05/03 11:17:19;;;;;;;36.95;30.15;;;10.70;99.90;;;;;;5128475;28;20060;-76
2021/05/03 11:22:51;;;;;;;32.08;25.23;;;11.20;99.90;;;;;;5134377;28;20040;-76
2021/05/03 11:25:26;;;;;;;31.48;25.58;;;11.30;99.90;;;;;;5119859;28;20036;-76
2021/05/03 11:30:59;;;;;;;28.95;25.33;;;11.20;99.90;;;;;;5132035;28;20050;-79
2021/05/03 11:33:41;;;;;;;30.42;25.35;;;11.20;99.90;;;;;;5096741;28;20044;-78
2021/05/03 11:36:23;;;;;;;30.85;25.08;;;11.10;99.90;;;;;;5127035;28;20027;-78
2021/05/03 11:46:42;;;;;;;28.52;21.95;;;10.90;99.90;;;;;;5107670;28;20043;-78
2021/05/03 11:49:13;;;;;;;29.33;24.25;;;10.90;99.90;;;;;;5104681;28;20468;-78
2021/05/03 11:51:47;;;;;;;31.80;23.17;;;10.90;99.90;;;;;;5135030;28;20040;-78
2021/05/03 11:54:25;;;;;;;22.58;18.17;;;10.90;99.90;;;;;;5141949;28;20047;-78
2021/05/03 11:57:19;;;;;;;11.48;8.60;;;10.80;99.90;;;;;;5131312;28;20047;-77
2021/05/03 11:59:57;;;;;;;6.45;3.10;;;10.80;99.90;;;;;;5141960;28;20105;-77
2021/05/03 12:02:26;;;;;;;4.22;2.83;;;10.90;99.90;;;;;;5145690;28;20043;-78
2021/05/03 12:04:53;;;;;;;4.85;3.47;;;10.80;99.90;;;;;;5148271;28;20076;-77
2021/05/03 12:07:23;;;;;;;5.97;2.85;;;10.70;99.90;;;;;;5146406;28;20043;-78
2021/05/03 12:10:10;;;;;;;4.93;3.42;;;10.60;99.90;;;;;;5139374;28;20447;-78
2021/05/03 12:12:48;;;;;;;5.70;3.75;;;10.50;99.90;;;;;;5145189;28;20028;-78
2021/05/03 12:15:28;;;;;;;5.50;4.38;;;10.50;99.90;;;;;;5103368;28;20135;-78
2021/05/03 12:18:05;;;;;;;5.70;4.00;;;10.70;99.90;;;;;;5137928;28;20406;-79
2021/05/03 12:20:34;;;;;;;5.53;4.07;;;10.90;99.90;;;;;;5135856;28;20036;-78
2021/05/03 12:23:08;;;;;;;8.07;5.75;;;11.10;99.90;;;;;;5124404;28;20085;-79
2021/05/03 12:25:50;;;;;;;7.47;4.88;;;11.20;99.90;;;;;;5136231;28;20369;-78
2021/05/03 12:28:19;;;;;;;8.75;6.30;;;11.10;99.90;;;;;;5122830;28;20881;-78
2021/05/03 12:30:48;;;;;;;8.80;6.00;;;11.10;99.90;;;;;;5147028;28;20475;-78
2021/05/03 12:33:19;;;;;;;10.85;8.23;;;10.90;99.90;;;;;;5118402;28;20423;-79
2021/05/03 12:35:55;;;;;;;14.77;10.43;;;10.70;99.90;;;;;;5146937;28;20049;-79
2021/05/03 12:38:24;;;;;;;;;;;10.50;99.90;;;;;;5133130;28;20039;-80
2021/05/03 12:40:52;;;;;;;19.92;15.32;;;10.30;99.90;;;;;;5129823;28;19916;-79
2021/05/03 12:43:32;;;;;;;25.40;19.75;;;10.20;99.90;;;;;;5126854;28;20317;-80
2021/05/03 12:48:32;;;;;;;12.02;9.85;;;10.00;99.90;;;;;;5146550;28;20080;-79
2021/05/03 12:53:53;;;;;;;9.05;5.82;;;9.70;99.90;;;;;;5141045;28;20106;-79
2021/05/03 12:56:30;;;;;;;9.43;6.90;;;9.60;99.90;;;;;;5140505;28;20653;-78
2021/05/03 13:01:46;;;;;;;11.07;9.13;;;9.50;99.90;;;;;;5137398;28;20039;-78
2021/05/03 13:30:01;;;;;;;9.73;7.00;;;11.10;99.90;;;;;;5127658;28;20043;-79
2021/05/03 13:32:30;;;;;;;8.73;7.10;;;11.10;99.90;;;;;;5116653;28;20498;-79
2021/05/03 13:34:58;;;;;;;10.48;8.00;;;11.00;99.90;;;;;;5143614;28;20028;-79
2021/05/03 13:37:25;;;;;;;10.15;7.80;;;10.90;99.90;;;;;;5139362;28;20046;-78
2021/05/03 13:39:52;;;;;;;9.30;8.27;;;10.90;99.90;;;;;;5109672;28;20039;-78
2021/05/03 13:42:19;;;;;;;10.88;8.32;;;11.00;99.90;;;;;;5092550;28;20048;-78
2021/05/03 13:44:46;;;;;;;10.63;9.10;;;11.00;99.90;;;;;;5111939;28;20040;-78
2021/05/03 13:47:13;;;;;;;11.95;8.32;;;11.20;99.90;;;;;;5129520;28;20031;-79
2021/05/03 13:49:40;;;;;;;12.35;7.78;;;11.30;99.90;;;;;;5129869;28;20031;-80
2021/05/03 13:52:08;;;;;;;11.38;7.88;;;11.40;99.90;;;;;;5103365;28;20051;-79
2021/05/03 13:54:35;;;;;;;9.43;6.78;;;11.40;99.90;;;;;;5146751;28;20040;-77
2021/05/03 13:57:05;;;;;;;6.97;5.68;;;11.40;99.90;;;;;;5135735;28;20032;-78
2021/05/03 13:59:33;;;;;;;9.35;5.93;;;11.40;99.90;;;;;;5138398;28;20040;-78
2021/05/03 14:02:02;;;;;;;7.15;5.25;;;11.40;99.90;;;;;;5113830;28;20036;-78
2021/05/03 14:04:30;;;;;;;8.38;5.65;;;11.40;99.90;;;;;;5133775;28;20040;-79
2021/05/03 14:06:57;;;;;;;8.27;5.57;;;11.30;99.90;;;;;;5131166;28;20085;-79